Vining, Minnesota
Current Conditions -  °F | °C
As of 11:35 AM on Monday 22 Dec 2014 (Local Time) from KADC Reporting Station
Haze Haze  
Wind Chill: 28°   Ceiling: 400
Heat Index: 36°   Visibility: 2mi
Dew Point: 34°   Wind: 10mph
Humidity: 93%   Direction: 130°SE
Pressure: 29.54"   Gusts: NA
Location:  46.26°N, 95.54°W
Report Text: KADC 221735Z AUTO 13009KT 2SM BR OVC004 02/01 A2954 RMK AO2
Loading
Personal Weather Stations






























Interactive Weather Map New forecast layout! Learn more

10-Day Weather Forecast

Advertisements
Track Severe Weather on mobile